createdAt,value
2022-12-26T00:01:41.386Z,7.05
2022-12-26T00:03:58.834Z,6.75
2022-12-26T00:06:15.962Z,7.40
2022-12-26T00:08:33.018Z,6.53
2022-12-26T00:10:50.413Z,7.07
2022-12-26T00:13:39.425Z,8.68
2022-12-26T00:15:44.764Z,8.25
2022-12-26T00:18:01.819Z,6.97
2022-12-26T00:20:18.856Z,8.43
2022-12-26T00:22:35.985Z,7.45
2022-12-26T00:24:52.940Z,6.53
2022-12-26T00:27:10.292Z,7.82
2022-12-26T00:29:27.429Z,6.80
2022-12-26T00:31:44.586Z,9.38
2022-12-26T00:34:01.684Z,9.27
2022-12-26T00:36:18.642Z,7.07
2022-12-26T00:38:35.691Z,6.72
2022-12-26T00:40:53.103Z,8.38
2022-12-26T00:43:10.490Z,4.82
2022-12-26T00:45:27.540Z,9.20
2022-12-26T00:47:44.586Z,7.60
2022-12-26T00:50:12.578Z,8.60
2022-12-26T00:52:32.415Z,6.45
2022-12-26T00:54:49.732Z,8.48
2022-12-26T00:57:06.684Z,7.55
2022-12-26T00:59:23.658Z,8.68
2022-12-26T01:01:40.797Z,7.40
2022-12-26T01:03:57.931Z,5.45
2022-12-26T01:06:14.799Z,5.97
2022-12-26T01:08:32.135Z,5.75
2022-12-26T01:10:49.345Z,7.90
2022-12-26T01:13:06.270Z,6.60
2022-12-26T01:15:23.349Z,7.85
2022-12-26T01:17:40.410Z,6.88
2022-12-26T01:19:57.710Z,8.00
2022-12-26T01:22:15.634Z,7.10
2022-12-26T01:24:32.501Z,5.38
2022-12-26T01:26:49.519Z,6.32
2022-12-26T01:29:06.538Z,7.50
2022-12-26T01:31:23.599Z,7.15
2022-12-26T01:33:40.585Z,6.35
2022-12-26T01:35:57.635Z,8.07
2022-12-26T01:38:14.639Z,8.48
2022-12-26T01:40:31.653Z,7.95
2022-12-26T01:42:48.982Z,8.50
2022-12-26T01:45:06.109Z,7.90
2022-12-26T01:47:23.192Z,7.35
2022-12-26T01:49:40.284Z,11.68
2022-12-26T01:51:57.205Z,9.43
2022-12-26T01:54:40.176Z,6.97
2022-12-26T01:56:51.105Z,7.20
2022-12-26T01:59:08.041Z,6.30
2022-12-26T02:01:25.082Z,6.15
2022-12-26T02:03:42.058Z,9.75
2022-12-26T02:06:01.033Z,6.97
2022-12-26T02:08:18.035Z,9.20
2022-12-26T02:10:35.175Z,6.85
2022-12-26T02:12:52.125Z,9.05
2022-12-26T02:15:09.177Z,8.10
2022-12-26T02:17:26.141Z,5.20
2022-12-26T02:19:44.160Z,9.77
2022-12-26T02:22:01.471Z,7.88
2022-12-26T02:24:18.424Z,7.38
2022-12-26T02:26:35.716Z,9.73
2022-12-26T02:28:53.983Z,7.15
2022-12-26T02:31:10.933Z,7.13
2022-12-26T02:33:28.247Z,7.60
2022-12-26T02:35:45.189Z,6.97
2022-12-26T02:38:02.145Z,6.13
2022-12-26T02:40:19.078Z,6.10
2022-12-26T02:42:36.177Z,6.30
2022-12-26T02:44:53.209Z,7.32
2022-12-26T02:47:10.212Z,8.63
2022-12-26T02:49:27.615Z,7.35
2022-12-26T02:51:44.864Z,8.18
2022-12-26T02:54:01.765Z,8.52
2022-12-26T02:56:18.814Z,8.00
2022-12-26T02:58:38.340Z,7.05
2022-12-26T03:00:55.406Z,7.70
2022-12-26T03:03:12.789Z,8.95
2022-12-26T03:05:29.935Z,7.22
2022-12-26T03:07:46.903Z,6.38
2022-12-26T03:10:04.181Z,7.10
2022-12-26T03:12:21.217Z,7.03
2022-12-26T03:14:38.966Z,6.75
2022-12-26T03:16:56.953Z,7.53
2022-12-26T03:19:13.984Z,6.30
2022-12-26T03:21:31.233Z,8.73
2022-12-26T03:23:48.194Z,6.75
2022-12-26T03:26:05.545Z,8.18
2022-12-26T03:28:22.608Z,7.63
2022-12-26T03:30:39.506Z,8.60
2022-12-26T03:32:56.464Z,7.30
2022-12-26T03:35:13.800Z,6.93
2022-12-26T03:37:47.696Z,9.10
2022-12-26T03:40:08.335Z,6.35
2022-12-26T03:42:25.260Z,8.10
2022-12-26T03:44:42.217Z,9.23
2022-12-26T03:46:59.452Z,8.07
2022-12-26T03:49:16.439Z,7.03
2022-12-26T03:51:33.340Z,5.95
2022-12-26T03:53:50.602Z,5.22
2022-12-26T03:56:07.608Z,7.70
2022-12-26T03:58:24.568Z,7.55
2022-12-26T04:00:41.621Z,5.53
2022-12-26T04:02:58.715Z,7.93
2022-12-26T04:05:16.011Z,6.68
2022-12-26T04:07:33.017Z,7.22
2022-12-26T04:09:49.917Z,5.70
2022-12-26T04:12:06.974Z,6.38
2022-12-26T04:14:24.021Z,7.22
2022-12-26T04:16:40.925Z,7.03
2022-12-26T04:18:58.163Z,7.32
2022-12-26T04:21:15.198Z,7.35
2022-12-26T04:23:32.139Z,5.63
2022-12-26T04:25:51.649Z,5.97
2022-12-26T04:28:08.843Z,5.65
2022-12-26T04:30:26.183Z,7.85
2022-12-26T04:32:43.174Z,5.97
2022-12-26T04:35:00.231Z,9.27
2022-12-26T04:37:17.214Z,7.05
2022-12-26T04:39:34.632Z,6.88
2022-12-26T04:41:51.654Z,7.40
2022-12-26T04:44:08.930Z,6.20
2022-12-26T04:46:26.012Z,7.13
2022-12-26T04:48:43.039Z,7.78
2022-12-26T04:51:01.059Z,7.68
2022-12-26T04:53:18.041Z,6.53
2022-12-26T04:55:35.052Z,7.82
2022-12-26T04:57:51.999Z,7.72
2022-12-26T05:00:08.929Z,7.75
2022-12-26T05:02:26.076Z,8.98
2022-12-26T05:04:43.054Z,11.63
2022-12-26T05:07:03.519Z,7.35
2022-12-26T05:09:20.723Z,8.00
2022-12-26T05:11:37.809Z,8.15
2022-12-26T05:13:54.772Z,6.93
2022-12-26T05:16:11.831Z,8.77
2022-12-26T05:18:29.083Z,9.85
2022-12-26T05:20:46.396Z,5.75
2022-12-26T05:23:03.485Z,5.70
2022-12-26T05:25:20.387Z,6.80
2022-12-26T05:27:37.334Z,10.95
2022-12-26T05:29:54.377Z,8.48
2022-12-26T05:32:11.303Z,7.45
2022-12-26T05:34:28.364Z,6.82
2022-12-26T05:36:45.324Z,7.28
2022-12-26T05:39:02.305Z,6.45
2022-12-26T05:41:19.656Z,6.82
2022-12-26T05:43:36.706Z,8.20
2022-12-26T05:45:54.762Z,5.72
2022-12-26T05:48:11.803Z,9.63
2022-12-26T05:50:28.730Z,6.30
2022-12-26T05:52:46.069Z,7.05
2022-12-26T05:55:03.069Z,7.15
2022-12-26T05:57:20.007Z,8.10
2022-12-26T05:59:37.223Z,8.60
2022-12-26T06:01:54.746Z,9.00
2022-12-26T06:04:11.865Z,6.25
2022-12-26T06:06:28.856Z,8.80
2022-12-26T06:08:45.899Z,12.70
2022-12-26T06:11:02.845Z,9.65
2022-12-26T06:13:19.783Z,6.88
2022-12-26T06:15:36.835Z,21.70
2022-12-26T06:17:53.864Z,22.00
2022-12-26T06:20:10.814Z,8.38
2022-12-26T06:22:28.170Z,9.75
2022-12-26T06:24:45.172Z,7.85
2022-12-26T06:27:02.162Z,7.85
2022-12-26T06:29:19.482Z,9.18
2022-12-26T06:31:36.593Z,6.97
2022-12-26T06:33:54.657Z,10.10
2022-12-26T06:36:11.600Z,11.32
2022-12-26T06:38:28.519Z,7.13
2022-12-26T06:40:45.504Z,9.75
2022-12-26T06:43:02.444Z,11.10
2022-12-26T06:45:19.352Z,39.83
2022-12-26T06:47:36.804Z,62.45
2022-12-26T06:49:53.795Z,36.58
2022-12-26T06:52:10.874Z,14.82
2022-12-26T06:54:28.837Z,10.00
2022-12-26T06:56:45.933Z,20.02
2022-12-26T06:59:02.968Z,19.38
2022-12-26T07:01:20.078Z,12.32
2022-12-26T07:03:37.132Z,20.38
2022-12-26T07:05:54.384Z,14.35
2022-12-26T07:08:11.404Z,16.50
2022-12-26T07:10:28.461Z,13.70
2022-12-26T07:12:45.374Z,11.82
2022-12-26T07:15:02.413Z,10.95
2022-12-26T07:17:19.736Z,9.57
2022-12-26T07:19:36.680Z,9.55
2022-12-26T07:21:53.763Z,15.48
2022-12-26T07:24:12.001Z,12.55
2022-12-26T07:26:29.314Z,14.90
2022-12-26T07:28:46.574Z,15.98
2022-12-26T07:31:03.556Z,14.07
2022-12-26T07:33:20.633Z,15.80
2022-12-26T07:35:37.582Z,15.15
2022-12-26T07:37:54.606Z,14.65
2022-12-26T07:40:11.498Z,11.00
2022-12-26T07:42:29.576Z,16.58
2022-12-26T07:44:47.470Z,13.32
2022-12-26T07:47:04.506Z,13.30
2022-12-26T07:49:21.612Z,19.50
2022-12-26T07:51:38.651Z,16.40
2022-12-26T07:53:55.883Z,14.77
2022-12-26T07:56:13.165Z,12.13
2022-12-26T07:58:30.223Z,14.27
2022-12-26T08:00:47.577Z,14.38
2022-12-26T08:03:07.815Z,14.65
2022-12-26T08:05:25.696Z,13.70
2022-12-26T08:07:42.932Z,13.23
2022-12-26T08:09:59.976Z,9.77
2022-12-26T08:12:18.910Z,10.52
2022-12-26T08:14:36.839Z,11.80
2022-12-26T08:16:53.941Z,9.35
2022-12-26T08:19:11.057Z,7.95
2022-12-26T08:21:28.347Z,10.30
2022-12-26T08:23:45.331Z,12.68
2022-12-26T08:26:02.331Z,13.10
2022-12-26T08:28:19.371Z,14.40
2022-12-26T08:30:36.407Z,15.20
2022-12-26T08:32:53.461Z,16.52
2022-12-26T08:35:10.496Z,15.57
2022-12-26T08:37:27.798Z,14.65
2022-12-26T08:39:44.862Z,12.38
2022-12-26T08:42:02.136Z,15.68
2022-12-26T08:44:27.985Z,10.75
2022-12-26T08:46:45.344Z,11.90
2022-12-26T08:49:02.679Z,15.02
2022-12-26T08:51:19.653Z,12.88
2022-12-26T08:53:36.642Z,16.75
2022-12-26T08:55:53.583Z,22.50
2022-12-26T08:58:11.817Z,21.20
2022-12-26T09:00:29.803Z,18.67
2022-12-26T09:02:46.914Z,19.02
2022-12-26T09:05:04.270Z,16.23
2022-12-26T09:07:21.485Z,17.70
2022-12-26T09:09:38.765Z,14.18
2022-12-26T09:11:55.786Z,20.77
2022-12-26T09:14:13.902Z,16.08
2022-12-26T09:16:37.240Z,11.88
2022-12-26T09:18:55.573Z,12.82
2022-12-26T09:21:12.535Z,10.65
2022-12-26T09:23:29.559Z,11.38
2022-12-26T09:25:46.469Z,12.40
2022-12-26T09:28:03.734Z,16.05
2022-12-26T09:30:20.712Z,16.80
2022-12-26T09:32:37.744Z,13.80
2022-12-26T09:34:54.995Z,14.95
2022-12-26T09:37:12.272Z,8.60
2022-12-26T09:39:29.187Z,4.68
2022-12-26T09:41:46.448Z,5.00
2022-12-26T09:44:03.373Z,3.20
2022-12-26T09:46:20.327Z,8.82
2022-12-26T09:48:37.607Z,13.48
2022-12-26T09:50:54.900Z,14.57
2022-12-26T09:53:11.933Z,11.30
2022-12-26T09:55:28.917Z,8.95
2022-12-26T09:57:46.106Z,9.98
2022-12-26T10:00:02.965Z,14.32
2022-12-26T10:02:20.070Z,12.02
2022-12-26T10:04:37.569Z,11.75
2022-12-26T10:06:54.886Z,8.80
2022-12-26T10:09:12.155Z,8.00
2022-12-26T10:11:29.360Z,6.78
2022-12-26T10:13:46.340Z,6.10
2022-12-26T10:16:03.443Z,4.53
2022-12-26T10:18:20.399Z,4.72
2022-12-26T10:20:37.682Z,5.45
2022-12-26T10:22:54.926Z,5.30
2022-12-26T10:25:11.857Z,6.07
2022-12-26T10:27:28.812Z,4.55
2022-12-26T10:29:46.759Z,3.40
2022-12-26T10:32:03.986Z,4.25
2022-12-26T10:34:21.008Z,4.15
2022-12-26T10:36:37.981Z,6.50
2022-12-26T10:38:54.987Z,4.20
2022-12-26T10:41:12.225Z,2.95
2022-12-26T10:43:29.234Z,2.30
2022-12-26T10:45:46.307Z,2.17
2022-12-26T10:48:03.342Z,3.65
2022-12-26T10:50:25.563Z,2.95
2022-12-26T10:52:44.530Z,4.45
2022-12-26T10:55:28.447Z,3.13
2022-12-26T10:57:38.678Z,3.28
2022-12-26T10:59:55.729Z,1.88
2022-12-26T11:02:13.407Z,5.63
2022-12-26T11:05:02.204Z,2.85
2022-12-26T11:07:07.704Z,5.03
2022-12-26T11:09:24.774Z,4.55
2022-12-26T11:11:43.070Z,4.93
2022-12-26T11:14:02.499Z,4.70
2022-12-26T11:16:20.271Z,1.70
2022-12-26T11:18:37.353Z,4.25
2022-12-26T11:20:54.288Z,2.15
2022-12-26T11:23:11.282Z,6.95
2022-12-26T11:25:28.329Z,4.13
2022-12-26T11:27:45.585Z,2.60
2022-12-26T11:30:02.825Z,10.43
2022-12-26T11:32:20.959Z,5.38
2022-12-26T11:34:38.262Z,6.53
2022-12-26T11:36:55.251Z,4.88
2022-12-26T11:39:12.450Z,5.90
2022-12-26T11:41:29.421Z,4.55
2022-12-26T11:43:47.468Z,5.40
2022-12-26T11:46:04.508Z,4.60
2022-12-26T11:48:21.567Z,3.47
2022-12-26T11:50:38.540Z,3.40
2022-12-26T11:52:55.555Z,3.58
2022-12-26T11:55:12.619Z,2.90
2022-12-26T11:57:30.652Z,2.53
2022-12-26T11:59:47.658Z,2.83
2022-12-26T12:02:04.909Z,3.28
2022-12-26T12:04:21.965Z,3.90
2022-12-26T12:06:38.942Z,2.10
2022-12-26T12:08:59.643Z,3.13
2022-12-26T12:11:20.863Z,3.55
2022-12-26T12:13:37.856Z,2.03
2022-12-26T12:15:54.883Z,2.88
2022-12-26T12:18:12.827Z,2.53
2022-12-26T12:20:29.855Z,3.58
2022-12-26T12:22:46.720Z,3.75
2022-12-26T12:25:03.715Z,2.67
2022-12-26T12:27:21.037Z,3.17
2022-12-26T12:29:38.048Z,5.03
2022-12-26T12:31:55.361Z,1.67
2022-12-26T12:34:12.307Z,3.75
2022-12-26T12:36:29.311Z,2.75
2022-12-26T12:38:51.455Z,2.15
2022-12-26T12:41:11.667Z,1.90
2022-12-26T12:43:28.870Z,3.25
2022-12-26T12:45:45.819Z,2.67
2022-12-26T12:48:03.108Z,6.38
2022-12-26T12:50:19.990Z,2.72
2022-12-26T12:52:36.967Z,2.72
2022-12-26T12:54:54.328Z,5.03
2022-12-26T12:57:11.326Z,4.55
2022-12-26T12:59:28.212Z,2.95
2022-12-26T13:01:45.563Z,4.40
2022-12-26T13:04:03.961Z,3.97
2022-12-26T13:06:20.861Z,4.60
2022-12-26T13:08:37.885Z,1.63
2022-12-26T13:10:54.855Z,2.28
2022-12-26T13:13:11.752Z,3.25
2022-12-26T13:15:28.723Z,4.00
2022-12-26T13:17:45.649Z,4.75
2022-12-26T13:20:03.182Z,3.67
2022-12-26T13:22:20.719Z,3.63
2022-12-26T13:24:37.757Z,4.30
2022-12-26T13:26:54.672Z,3.53
2022-12-26T13:29:11.597Z,2.60
2022-12-26T13:31:28.738Z,6.28
2022-12-26T13:33:45.962Z,2.15
2022-12-26T13:36:09.801Z,2.47
2022-12-26T13:38:26.788Z,2.63
2022-12-26T13:40:43.871Z,2.95
2022-12-26T13:43:01.107Z,3.28
2022-12-26T13:45:18.105Z,3.67
2022-12-26T13:47:35.075Z,1.52
2022-12-26T13:49:52.328Z,5.30
2022-12-26T13:52:09.617Z,2.25
2022-12-26T13:54:26.846Z,5.22
2022-12-26T13:56:46.166Z,4.00
2022-12-26T13:59:03.349Z,2.50
2022-12-26T14:01:20.707Z,2.30
2022-12-26T14:03:37.761Z,3.83
2022-12-26T14:05:55.081Z,3.63
2022-12-26T14:08:12.393Z,2.97
2022-12-26T14:10:30.615Z,2.65
2022-12-26T14:12:47.698Z,1.92
2022-12-26T14:15:04.734Z,3.38
2022-12-26T14:17:21.771Z,2.33
2022-12-26T14:19:38.762Z,2.00
2022-12-26T14:21:55.813Z,4.00
2022-12-26T14:24:12.852Z,5.82
2022-12-26T14:26:29.827Z,3.40
2022-12-26T14:28:47.075Z,5.95
2022-12-26T14:31:04.347Z,4.88
2022-12-26T14:33:21.362Z,3.75
2022-12-26T14:35:38.396Z,3.33
2022-12-26T14:37:56.416Z,12.43
2022-12-26T14:40:13.632Z,9.35
2022-12-26T14:42:30.902Z,5.93
2022-12-26T14:44:47.922Z,2.58
2022-12-26T14:47:05.193Z,45.38
2022-12-26T14:49:22.209Z,12.90
2022-12-26T14:51:39.049Z,22.15
2022-12-26T14:53:56.117Z,14.93
2022-12-26T14:56:13.127Z,3.13
2022-12-26T14:58:30.146Z,2.67
2022-12-26T15:00:48.468Z,2.22
2022-12-26T15:03:05.828Z,1.75
2022-12-26T15:05:23.033Z,2.78
2022-12-26T15:07:41.066Z,1.90
2022-12-26T15:09:58.347Z,2.58
2022-12-26T15:12:16.383Z,1.92
2022-12-26T15:14:33.365Z,1.17
2022-12-26T15:16:51.320Z,1.83
2022-12-26T15:19:08.310Z,2.25
2022-12-26T15:21:26.203Z,5.75
2022-12-26T15:23:43.223Z,1.80
2022-12-26T15:26:00.454Z,1.80
2022-12-26T15:28:17.692Z,1.48
2022-12-26T15:30:35.754Z,1.20
2022-12-26T15:32:52.792Z,1.10
2022-12-26T15:35:10.118Z,0.38
2022-12-26T15:37:27.340Z,2.92
2022-12-26T15:39:45.564Z,0.98
2022-12-26T15:42:02.807Z,1.77
2022-12-26T15:44:21.086Z,2.15
2022-12-26T15:46:38.387Z,1.00
2022-12-26T15:48:55.365Z,0.55
2022-12-26T15:51:12.615Z,2.80
2022-12-26T15:53:29.611Z,0.85
2022-12-26T15:55:46.638Z,1.63
2022-12-26T15:58:03.668Z,1.48
2022-12-26T16:00:20.674Z,1.95
2022-12-26T16:02:37.860Z,0.77
2022-12-26T16:04:54.849Z,1.15
2022-12-26T16:07:12.194Z,1.85
2022-12-26T16:09:29.062Z,3.00
2022-12-26T16:11:46.323Z,1.98
2022-12-26T16:14:03.591Z,2.47
2022-12-26T16:16:20.822Z,2.00
2022-12-26T16:18:37.873Z,2.08
2022-12-26T16:20:57.583Z,1.70
2022-12-26T16:23:14.565Z,2.22
2022-12-26T16:25:35.303Z,1.40
2022-12-26T16:27:54.694Z,2.90
2022-12-26T16:30:13.068Z,2.35
2022-12-26T16:32:31.066Z,0.90
2022-12-26T16:34:48.305Z,0.73
2022-12-26T16:37:05.283Z,2.15
2022-12-26T16:39:22.273Z,3.10
2022-12-26T16:41:39.592Z,0.38
2022-12-26T16:43:56.521Z,0.90
2022-12-26T16:46:13.873Z,0.50
2022-12-26T16:48:31.205Z,1.85
2022-12-26T16:50:49.451Z,1.60
2022-12-26T16:53:06.809Z,0.82
2022-12-26T16:55:24.023Z,0.38
2022-12-26T16:57:41.277Z,0.40
2022-12-26T16:59:58.330Z,0.60
2022-12-26T17:02:16.727Z,1.50
2022-12-26T17:04:33.819Z,0.40
2022-12-26T17:06:50.836Z,1.05
2022-12-26T17:09:07.863Z,0.50
2022-12-26T17:11:24.771Z,1.55
2022-12-26T17:13:41.770Z,0.90
2022-12-26T17:15:59.073Z,1.75
2022-12-26T17:18:16.359Z,1.90
2022-12-26T17:20:33.685Z,2.00
2022-12-26T17:22:50.956Z,2.47
2022-12-26T17:25:08.023Z,6.53
2022-12-26T17:27:27.818Z,1.45
2022-12-26T17:29:45.839Z,3.92
2022-12-26T17:32:02.777Z,2.17
2022-12-26T17:34:19.647Z,2.00
2022-12-26T17:39:14.707Z,1.88
2022-12-26T17:41:32.020Z,4.00
2022-12-26T17:43:49.039Z,4.10
2022-12-26T17:46:06.993Z,3.72
2022-12-26T17:48:24.163Z,8.27
2022-12-26T17:50:41.135Z,6.05
2022-12-26T17:52:58.163Z,3.80
2022-12-26T17:55:15.436Z,1.60
2022-12-26T17:57:32.523Z,3.22
2022-12-26T17:59:49.533Z,2.47
2022-12-26T18:02:06.592Z,2.88
2022-12-26T18:04:23.927Z,2.75
2022-12-26T18:06:41.048Z,3.60
2022-12-26T18:08:58.006Z,2.40
2022-12-26T18:11:16.076Z,2.70
2022-12-26T18:13:33.046Z,1.55
2022-12-26T18:15:50.396Z,0.93
2022-12-26T18:18:07.719Z,1.27
2022-12-26T18:20:25.058Z,1.55
2022-12-26T18:22:42.310Z,2.17
2022-12-26T18:24:59.662Z,2.28
2022-12-26T18:27:17.889Z,4.10
2022-12-26T18:29:34.894Z,5.30
2022-12-26T18:31:51.985Z,9.18
2022-12-26T18:34:10.279Z,7.85
2022-12-26T18:36:27.206Z,8.60
2022-12-26T18:38:44.279Z,4.85
2022-12-26T18:41:02.410Z,7.57
2022-12-26T18:43:19.712Z,7.93
2022-12-26T18:45:37.119Z,7.70
2022-12-26T18:47:55.249Z,7.10
2022-12-26T18:50:12.288Z,8.85
2022-12-26T18:52:30.388Z,5.80
2022-12-26T18:54:47.388Z,5.10
2022-12-26T18:57:04.326Z,5.38
2022-12-26T18:59:21.668Z,3.50
2022-12-26T19:01:38.912Z,3.90
2022-12-26T19:03:57.273Z,4.03
2022-12-26T19:06:14.581Z,3.08
2022-12-26T19:08:31.929Z,4.07
2022-12-26T19:10:49.148Z,4.10
2022-12-26T19:13:06.466Z,3.22
2022-12-26T19:15:23.617Z,2.08
2022-12-26T19:17:40.652Z,4.45
2022-12-26T19:19:57.582Z,2.90
2022-12-26T19:22:14.634Z,4.03
2022-12-26T19:24:31.707Z,3.08
2022-12-26T19:26:48.794Z,3.65
2022-12-26T19:29:06.795Z,3.78
2022-12-26T19:31:23.870Z,3.72
2022-12-26T19:33:41.199Z,2.20
2022-12-26T19:35:58.196Z,2.20
2022-12-26T19:38:15.205Z,2.80
2022-12-26T19:40:32.332Z,3.50
2022-12-26T19:42:49.319Z,4.40
2022-12-26T19:45:06.640Z,2.65
2022-12-26T19:47:23.803Z,3.80
2022-12-26T19:49:41.063Z,2.92
2022-12-26T19:51:58.382Z,4.82
2022-12-26T19:54:15.304Z,3.90
2022-12-26T19:56:33.335Z,4.03
2022-12-26T19:58:56.100Z,3.40
2022-12-26T20:01:13.811Z,3.00
2022-12-26T20:03:31.005Z,5.43
2022-12-26T20:05:48.401Z,5.15
2022-12-26T20:08:05.794Z,3.45
2022-12-26T20:10:22.821Z,5.85
2022-12-26T20:12:41.024Z,4.65
2022-12-26T20:14:57.987Z,3.58
2022-12-26T20:17:15.093Z,3.53
2022-12-26T20:19:32.207Z,4.90
2022-12-26T20:21:50.287Z,5.00
2022-12-26T20:24:07.601Z,4.47
2022-12-26T20:26:24.677Z,3.15
2022-12-26T20:28:44.387Z,5.53
2022-12-26T20:31:01.429Z,3.15
2022-12-26T20:33:18.876Z,3.35
2022-12-26T20:35:36.189Z,4.68
2022-12-26T20:37:53.536Z,4.90
2022-12-26T20:40:10.871Z,10.38
2022-12-26T20:42:28.833Z,4.40
2022-12-26T20:44:45.822Z,5.05
2022-12-26T20:47:03.142Z,3.78
2022-12-26T20:49:20.116Z,6.32
2022-12-26T20:51:38.276Z,7.85
2022-12-26T20:53:55.397Z,5.75
2022-12-26T20:56:12.586Z,7.80
2022-12-26T20:58:29.551Z,4.63
2022-12-26T21:00:46.640Z,8.60
2022-12-26T21:03:03.794Z,6.57
2022-12-26T21:05:21.756Z,4.25
2022-12-26T21:07:39.103Z,3.60
2022-12-26T21:09:56.053Z,5.43
2022-12-26T21:12:13.136Z,2.85
2022-12-26T21:14:30.079Z,4.15
2022-12-26T21:16:47.167Z,3.00
2022-12-26T21:19:06.711Z,5.63
2022-12-26T21:21:27.800Z,7.25
2022-12-26T21:23:45.873Z,4.32
2022-12-26T21:26:03.179Z,4.45
2022-12-26T21:28:20.565Z,4.00
2022-12-26T21:30:38.476Z,4.53
2022-12-26T21:32:55.890Z,4.07
2022-12-26T21:35:14.212Z,5.05
2022-12-26T21:37:31.535Z,3.58
2022-12-26T21:39:48.876Z,3.95
2022-12-26T21:42:06.011Z,3.90
2022-12-26T21:44:23.642Z,3.30
2022-12-26T21:46:40.829Z,4.90
2022-12-26T21:48:57.966Z,5.75
2022-12-26T21:51:15.212Z,4.57
2022-12-26T21:53:32.123Z,4.55
2022-12-26T21:55:49.294Z,5.15
2022-12-26T21:58:06.298Z,8.05
2022-12-26T22:00:23.279Z,3.75
2022-12-26T22:02:40.392Z,2.50
2022-12-26T22:04:57.499Z,3.83
2022-12-26T22:07:15.550Z,6.45
2022-12-26T22:09:33.439Z,7.15
2022-12-26T22:11:50.264Z,4.88
2022-12-26T22:14:07.617Z,6.13
2022-12-26T22:16:24.959Z,4.88
2022-12-26T22:18:42.186Z,4.15
2022-12-26T22:20:59.421Z,4.88
2022-12-26T22:23:16.400Z,5.13
2022-12-26T22:25:33.375Z,7.53
2022-12-26T22:27:51.676Z,5.38
2022-12-26T22:30:08.741Z,4.97
2022-12-26T22:32:25.678Z,7.43
2022-12-26T22:34:42.608Z,5.80
2022-12-26T22:36:59.914Z,5.70
2022-12-26T22:39:17.853Z,4.07
2022-12-26T22:41:35.235Z,5.22
2022-12-26T22:43:52.301Z,4.75
2022-12-26T22:46:10.404Z,9.60
2022-12-26T22:48:28.493Z,5.35
2022-12-26T22:50:45.469Z,2.90
2022-12-26T22:53:03.408Z,4.80
2022-12-26T22:55:20.632Z,6.85
2022-12-26T22:57:37.845Z,5.32
2022-12-26T23:00:08.137Z,5.25
2022-12-26T23:02:25.750Z,4.97
2022-12-26T23:04:42.866Z,5.30
2022-12-26T23:07:00.105Z,6.00
2022-12-26T23:09:17.482Z,4.45
2022-12-26T23:11:35.487Z,7.10
2022-12-26T23:13:53.277Z,4.28
2022-12-26T23:16:10.663Z,6.10
2022-12-26T23:18:29.873Z,5.65
2022-12-26T23:20:47.006Z,4.53
2022-12-26T23:23:05.105Z,4.65
2022-12-26T23:25:22.148Z,4.18
2022-12-26T23:27:39.323Z,5.85
2022-12-26T23:29:56.726Z,3.25
2022-12-26T23:32:14.826Z,5.05
2022-12-26T23:34:31.875Z,3.83
2022-12-26T23:36:49.343Z,4.47
2022-12-26T23:39:06.334Z,4.60
2022-12-26T23:41:23.349Z,5.03
2022-12-26T23:43:40.455Z,4.47
2022-12-26T23:45:57.360Z,7.60
2022-12-26T23:48:15.297Z,5.22
2022-12-26T23:50:32.293Z,5.70
2022-12-26T23:52:49.678Z,5.82
2022-12-26T23:55:07.794Z,8.18
2022-12-26T23:57:25.130Z,3.58
2022-12-26T23:59:42.033Z,3.72
